Time;durP1;ratioP1;P1;durP2;ratioP2;P2;SDS_P1;SDS_P2;PMS_P1;PMS_P2;Temp;Humidity;BMP_temperature;BMP_pressure;BME280_temperature;BME280_humidity;BME280_pressure;Samples;Min_cycle;Max_cycle;Signal;HPM_P1;HPM_P2
2022/06/01 00:00:45;;;;;;;1.45;0.30;;;11.60;49.20;;;;;;5011954;28;20030;-59
2022/06/01 00:03:13;;;;;;;0.90;0.50;;;11.60;48.70;;;;;;5025406;28;20029;-59
2022/06/01 00:05:41;;;;;;;3.80;0.52;;;11.70;48.80;;;;;;5002964;28;20128;-58
2022/06/01 00:08:08;;;;;;;0.85;0.30;;;11.70;50.20;;;;;;5011423;28;20491;-58
2022/06/01 00:10:36;;;;;;;1.48;0.55;;;11.80;48.70;;;;;;5012303;28;20568;-59
2022/06/01 00:13:03;;;;;;;1.02;0.28;;;11.80;48.00;;;;;;5011957;28;20475;-59
2022/06/01 00:15:31;;;;;;;0.90;0.30;;;11.90;49.10;;;;;;5012171;28;20057;-59
2022/06/01 00:18:00;;;;;;;0.17;0.17;;;12.00;50.10;;;;;;5011279;28;20176;-58
2022/06/01 00:20:28;;;;;;;6.10;1.38;;;12.00;48.20;;;;;;5011319;28;20506;-59
2022/06/01 00:22:56;;;;;;;0.73;0.60;;;12.10;48.20;;;;;;5011638;28;20029;-58
2022/06/01 00:25:24;;;;;;;0.65;0.30;;;12.10;49.00;;;;;;5011085;28;20057;-59
2022/06/01 00:27:52;;;;;;;0.20;0.13;;;12.20;48.10;;;;;;5011115;28;20152;-59
2022/06/01 00:30:19;;;;;;;2.83;0.60;;;12.20;48.70;;;;;;5011759;28;20022;-59
2022/06/01 00:32:47;;;;;;;5.95;0.60;;;12.30;48.90;;;;;;5011492;28;20110;-56
2022/06/01 00:35:16;;;;;;;6.25;0.45;;;12.30;48.70;;;;;;5011489;28;20033;-57
2022/06/01 00:37:43;;;;;;;4.57;0.47;;;12.30;49.10;;;;;;5011502;28;20770;-59
2022/06/01 00:40:13;;;;;;;4.43;0.52;;;12.40;48.90;;;;;;5010379;28;20130;-59
2022/06/01 00:42:46;;;;;;;0.47;0.10;;;12.50;48.20;;;;;;5011286;28;20415;-58
2022/06/01 00:45:18;;;;;;;0.20;0.17;;;12.60;48.20;;;;;;5010766;28;20041;-59
2022/06/01 00:47:47;;;;;;;0.10;0.10;;;12.60;48.20;;;;;;4998346;28;20136;-60
2022/06/01 00:50:23;;;;;;;1.80;0.40;;;12.70;48.20;;;;;;4972511;28;20030;-59
2022/06/01 00:53:02;;;;;;;0.10;0.10;;;12.80;48.10;;;;;;4972518;28;20125;-59
2022/06/01 00:55:37;;;;;;;1.55;0.40;;;12.80;47.60;;;;;;4975585;28;20030;-59
2022/06/01 00:58:10;;;;;;;4.25;0.40;;;13.00;47.50;;;;;;4991132;28;20037;-56
2022/06/01 01:00:41;;;;;;;1.63;0.20;;;13.10;48.50;;;;;;4991892;28;20061;-57
2022/06/01 01:03:10;;;;;;;2.30;0.47;;;13.10;46.10;;;;;;4991754;28;20026;-57
2022/06/01 01:05:41;;;;;;;1.13;0.30;;;13.10;45.70;;;;;;4991860;28;20031;-59
2022/06/01 01:08:09;;;;;;;2.72;0.50;;;13.00;45.20;;;;;;4991313;28;20034;-57
2022/06/01 01:10:36;;;;;;;0.13;0.10;;;13.00;47.20;;;;;;4990042;28;20431;-59
2022/06/01 01:13:08;;;;;;;0.55;0.30;;;13.10;47.50;;;;;;4990820;28;20109;-58
2022/06/01 01:15:56;;;;;;;1.45;0.68;;;13.20;46.70;;;;;;4996722;28;20041;-57
2022/06/01 01:18:38;;;;;;;0.43;0.30;;;13.20;44.50;;;;;;4990705;28;20014;-59
2022/06/01 01:21:26;;;;;;;0.70;0.47;;;13.20;45.60;;;;;;4991749;28;20474;-58
2022/06/01 01:23:54;;;;;;;1.75;0.40;;;13.20;46.10;;;;;;4990793;28;20038;-58
2022/06/01 01:26:24;;;;;;;0.10;0.10;;;13.20;43.90;;;;;;4990890;28;20395;-58
2022/06/01 01:28:52;;;;;;;1.00;0.30;;;13.10;44.10;;;;;;4989889;28;20102;-59
2022/06/01 01:31:22;;;;;;;1.55;0.30;;;13.20;44.70;;;;;;4989757;28;20022;-59
2022/06/01 01:33:52;;;;;;;0.28;0.20;;;13.20;44.70;;;;;;4991198;28;20036;-59
2022/06/01 01:36:35;;;;;;;2.15;0.20;;;13.20;43.30;;;;;;4990845;28;20041;-58
2022/06/01 01:39:12;;;;;;;0.52;0.25;;;13.20;43.60;;;;;;4990485;28;20395;-56
2022/06/01 01:41:42;;;;;;;1.05;0.20;;;13.30;44.40;;;;;;4990631;28;20026;-58
2022/06/01 01:44:10;;;;;;;0.45;0.20;;;13.40;42.90;;;;;;4990686;28;20045;-59
2022/06/01 01:46:38;;;;;;;0.75;0.30;;;13.30;43.40;;;;;;4991858;28;20032;-55
2022/06/01 01:49:05;;;;;;;2.38;0.50;;;13.30;43.60;;;;;;5027344;28;20057;-59
2022/06/01 01:51:33;;;;;;;0.20;0.20;;;13.30;43.80;;;;;;5016215;28;20430;-57
2022/06/01 01:54:01;;;;;;;0.20;0.20;;;13.40;44.50;;;;;;5017250;28;20025;-59
2022/06/01 01:57:19;;;;;;;3.45;0.50;;;13.50;43.90;;;;;;5016898;28;20026;-57
2022/06/01 02:00:05;;;;;;;1.95;0.35;;;13.40;44.50;;;;;;4949461;29;20173;-59
2022/06/01 02:02:40;;;;;;;1.40;0.40;;;13.40;44.10;;;;;;4959181;28;20436;-57
2022/06/01 02:08:30;;;;;;;7.45;1.23;;;13.50;44.60;;;;;;5009909;28;20450;-59
2022/06/01 02:14:20;;;;;;;0.25;0.20;;;13.50;44.50;;;;;;5003324;28;20048;-57
2022/06/01 02:17:01;;;;;;;0.30;0.13;;;13.50;44.60;;;;;;5009001;28;20119;-56
2022/06/01 02:19:42;;;;;;;4.55;0.32;;;13.60;44.40;;;;;;4997714;28;20500;-58
2022/06/01 02:22:11;;;;;;;0.25;0.20;;;13.60;43.90;;;;;;5009300;28;20033;-60
2022/06/01 02:24:39;;;;;;;0.30;0.20;;;13.50;44.10;;;;;;5005420;28;20614;-60
2022/06/01 02:27:09;;;;;;;1.10;0.32;;;13.50;44.90;;;;;;5007147;28;20033;-57
2022/06/01 02:29:42;;;;;;;0.40;0.30;;;13.50;43.80;;;;;;5009686;28;20097;-57
2022/06/01 02:32:10;;;;;;;0.70;0.20;;;13.60;45.40;;;;;;5009787;28;20406;-58
2022/06/01 02:34:39;;;;;;;0.50;0.35;;;13.80;46.10;;;;;;5009979;28;20375;-58
2022/06/01 02:37:08;;;;;;;5.78;0.93;;;13.90;45.70;;;;;;5009821;28;20519;-58
2022/06/01 02:39:40;;;;;;;1.33;0.22;;;14.00;44.90;;;;;;5002170;28;20792;-56
2022/06/01 02:42:25;;;;;;;1.85;0.20;;;14.10;45.40;;;;;;5008369;28;20026;-57
2022/06/01 02:45:06;;;;;;;1.48;0.20;;;14.10;44.00;;;;;;5008972;28;20041;-57
2022/06/01 02:47:37;;;;;;;0.82;0.10;;;14.10;43.30;;;;;;5001772;28;20607;-54
2022/06/01 02:50:07;;;;;;;0.10;0.10;;;14.00;43.60;;;;;;5008850;28;20091;-58
2022/06/01 02:52:35;;;;;;;1.05;0.28;;;13.90;42.70;;;;;;5009906;28;20033;-58
2022/06/01 02:55:05;;;;;;;1.55;0.47;;;13.90;44.00;;;;;;5012946;28;20050;-58
2022/06/01 02:57:33;;;;;;;1.75;0.40;;;13.90;44.50;;;;;;5009081;28;20099;-58
2022/06/01 03:00:01;;;;;;;5.97;0.40;;;14.00;43.20;;;;;;5009289;28;20034;-58
2022/06/01 03:02:28;;;;;;;0.93;0.30;;;14.00;43.60;;;;;;5014232;28;20029;-58
2022/06/01 03:04:55;;;;;;;0.65;0.30;;;13.90;44.40;;;;;;5023834;28;20041;-57
2022/06/01 03:07:23;;;;;;;0.75;0.20;;;14.00;43.80;;;;;;5016188;28;20010;-59
2022/06/01 03:09:50;;;;;;;0.22;0.20;;;14.00;44.80;;;;;;5011533;28;20030;-55
2022/06/01 03:12:17;;;;;;;11.80;0.50;;;14.00;43.80;;;;;;5004241;28;20680;-59
2022/06/01 03:14:45;;;;;;;0.13;0.13;;;13.80;42.40;;;;;;5014718;28;20076;-58
2022/06/01 03:17:13;;;;;;;0.50;0.20;;;13.80;44.50;;;;;;5012823;28;20030;-59
2022/06/01 03:19:40;;;;;;;0.30;0.10;;;13.70;43.60;;;;;;5011930;28;20081;-57
2022/06/01 03:22:07;;;;;;;1.00;0.22;;;13.80;43.50;;;;;;5012981;28;20018;-58
2022/06/01 03:24:35;;;;;;;3.75;0.50;;;13.70;44.80;;;;;;5011482;28;20052;-58
2022/06/01 03:27:02;;;;;;;4.55;0.45;;;13.70;43.60;;;;;;5012587;28;20037;-56
2022/06/01 03:29:29;;;;;;;0.50;0.25;;;13.80;44.90;;;;;;5011415;28;20501;-56
2022/06/01 03:31:58;;;;;;;0.93;0.28;;;13.70;44.40;;;;;;5012457;28;20026;-58
2022/06/01 03:34:28;;;;;;;0.22;0.22;;;13.80;44.80;;;;;;4994280;28;20387;-58
2022/06/01 03:36:57;;;;;;;2.25;0.60;;;13.90;44.40;;;;;;5009141;28;20049;-54
2022/06/01 03:39:24;;;;;;;0.70;0.20;;;14.00;44.20;;;;;;5012051;28;20037;-56
2022/06/01 03:41:51;;;;;;;0.55;0.30;;;13.90;44.00;;;;;;5011845;28;20421;-56
2022/06/01 03:47:11;;;;;;;0.88;0.30;;;14.00;43.60;;;;;;5009264;28;20760;-58
2022/06/01 03:49:39;;;;;;;2.42;0.40;;;13.90;43.70;;;;;;5010766;28;20034;-57
2022/06/01 03:52:07;;;;;;;0.50;0.15;;;13.80;43.60;;;;;;5011364;28;20461;-59
2022/06/01 03:54:34;;;;;;;3.03;0.40;;;13.70;44.20;;;;;;5011260;28;20034;-57
2022/06/01 03:57:02;;;;;;;3.08;0.40;;;13.80;44.30;;;;;;5011084;28;20089;-57
2022/06/01 03:59:30;;;;;;;0.80;0.30;;;13.70;44.30;;;;;;5009746;28;20100;-58
2022/06/01 04:02:01;;;;;;;6.70;0.38;;;13.70;44.30;;;;;;5009684;28;20091;-57
2022/06/01 04:04:29;;;;;;;1.20;0.45;;;13.80;44.90;;;;;;5010183;28;20682;-58
2022/06/01 04:06:57;;;;;;;1.08;0.30;;;13.80;44.90;;;;;;5010672;28;20113;-58
2022/06/01 04:09:24;;;;;;;2.40;0.93;;;13.80;44.60;;;;;;5010084;28;20133;-56
2022/06/01 04:11:52;;;;;;;4.25;0.55;;;13.70;44.20;;;;;;5009992;28;20025;-53
2022/06/01 04:14:20;;;;;;;1.48;0.28;;;13.60;44.50;;;;;;5010434;28;20025;-58
2022/06/01 04:16:48;;;;;;;1.75;0.28;;;13.50;44.40;;;;;;5007126;28;20108;-58
2022/06/01 04:19:16;;;;;;;5.10;0.40;;;13.50;45.10;;;;;;5011847;28;20442;-57
2022/06/01 04:21:47;;;;;;;0.52;0.20;;;13.50;46.10;;;;;;5011559;28;20164;-56
2022/06/01 04:24:19;;;;;;;1.02;0.15;;;13.50;45.10;;;;;;5011316;28;20100;-58
2022/06/01 04:26:46;;;;;;;4.03;0.50;;;13.50;46.40;;;;;;5010454;28;20056;-58
2022/06/01 04:29:15;;;;;;;1.05;0.60;;;13.60;45.70;;;;;;5013762;28;20022;-58
2022/06/01 04:31:42;;;;;;;3.13;0.40;;;13.60;46.40;;;;;;5018874;28;20498;-56
2022/06/01 04:34:09;;;;;;;1.10;0.38;;;13.60;46.10;;;;;;4992965;28;20253;-59
2022/06/01 04:36:37;;;;;;;1.45;0.30;;;13.60;46.00;;;;;;5020394;28;20045;-59
2022/06/01 04:39:04;;;;;;;0.60;0.28;;;13.60;47.00;;;;;;5013564;28;20648;-58
2022/06/01 04:41:32;;;;;;;1.23;0.40;;;13.60;47.20;;;;;;5008737;28;20445;-58
2022/06/01 04:44:00;;;;;;;4.20;0.52;;;13.50;46.20;;;;;;5009766;28;20678;-57
2022/06/01 04:46:27;;;;;;;0.32;0.28;;;13.50;47.10;;;;;;5006536;28;20033;-58
2022/06/01 04:48:54;;;;;;;3.25;0.57;;;13.50;47.40;;;;;;5010900;28;20598;-55
2022/06/01 04:51:21;;;;;;;1.00;0.63;;;13.50;47.20;;;;;;5010281;28;20022;-57
2022/06/01 04:53:48;;;;;;;0.88;0.30;;;13.50;47.00;;;;;;5010527;28;20157;-57
2022/06/01 04:56:16;;;;;;;6.65;0.40;;;13.40;46.60;;;;;;5011043;28;20394;-56
2022/06/01 04:58:43;;;;;;;1.60;0.30;;;13.40;47.30;;;;;;5008632;28;20045;-56
2022/06/01 05:01:10;;;;;;;1.80;0.45;;;13.40;47.90;;;;;;5010014;28;20060;-58
2022/06/01 05:03:37;;;;;;;1.88;0.80;;;13.30;48.30;;;;;;5011086;28;20042;-56
2022/06/01 05:06:05;;;;;;;0.95;0.30;;;13.30;48.40;;;;;;5007464;28;20032;-52
2022/06/01 05:08:32;;;;;;;1.88;0.63;;;13.30;49.00;;;;;;4998222;28;20022;-58
2022/06/01 05:10:59;;;;;;;2.92;0.68;;;13.20;49.10;;;;;;5007756;28;20384;-58
2022/06/01 05:13:27;;;;;;;2.67;0.43;;;13.20;49.10;;;;;;5007427;28;20076;-59
2022/06/01 05:15:58;;;;;;;2.97;0.40;;;13.20;48.60;;;;;;5007953;28;20026;-57
2022/06/01 05:18:26;;;;;;;0.70;0.32;;;13.20;49.20;;;;;;5004503;28;20505;-57
2022/06/01 05:20:54;;;;;;;2.45;0.40;;;13.20;49.70;;;;;;5001031;28;20062;-54
2022/06/01 05:23:23;;;;;;;1.88;0.43;;;13.20;48.70;;;;;;5006931;28;20061;-54
2022/06/01 05:25:52;;;;;;;6.22;0.82;;;13.10;49.40;;;;;;5005838;28;20842;-57
2022/06/01 05:28:22;;;;;;;1.60;0.40;;;13.10;50.10;;;;;;5007692;28;20391;-56
2022/06/01 05:30:50;;;;;;;4.30;0.60;;;13.00;49.60;;;;;;5005816;28;20074;-57
2022/06/01 05:33:17;;;;;;;2.47;0.70;;;12.90;49.10;;;;;;5009028;28;20026;-53
2022/06/01 05:35:44;;;;;;;1.38;0.38;;;12.90;50.00;;;;;;5007193;28;20543;-58
2022/06/01 05:38:12;;;;;;;1.55;0.40;;;12.80;50.40;;;;;;5003989;28;20034;-57
2022/06/01 05:40:39;;;;;;;0.93;0.30;;;12.70;49.90;;;;;;5009586;28;20161;-60
2022/06/01 05:43:12;;;;;;;0.47;0.30;;;12.70;50.40;;;;;;5006479;28;20021;-57
2022/06/01 05:45:40;;;;;;;3.20;0.38;;;12.60;50.80;;;;;;5006376;28;20514;-53
2022/06/01 05:48:13;;;;;;;2.28;0.43;;;12.60;51.00;;;;;;5007365;28;20115;-55
2022/06/01 05:50:40;;;;;;;3.92;0.50;;;12.60;51.00;;;;;;5006633;28;20045;-56
2022/06/01 05:53:08;;;;;;;6.78;0.80;;;12.50;51.30;;;;;;5007045;28;20026;-55
2022/06/01 05:55:37;;;;;;;5.47;0.80;;;12.50;52.50;;;;;;5006736;28;20407;-57
2022/06/01 05:58:20;;;;;;;4.35;0.50;;;12.40;52.30;;;;;;4995917;28;20489;-57
2022/06/01 06:00:49;;;;;;;5.47;1.13;;;12.40;52.10;;;;;;5011631;28;20036;-57
2022/06/01 06:03:18;;;;;;;6.53;0.85;;;12.30;52.40;;;;;;5006544;28;20028;-54
2022/06/01 06:08:32;;;;;;;4.60;1.00;;;12.30;52.40;;;;;;5011008;28;20414;-56
2022/06/01 06:10:59;;;;;;;4.13;0.50;;;12.20;53.00;;;;;;5004824;28;20050;-57
2022/06/01 06:13:26;;;;;;;2.17;0.50;;;12.10;53.40;;;;;;5013492;28;20029;-58
2022/06/01 06:15:53;;;;;;;4.47;0.57;;;11.90;54.50;;;;;;5012914;28;20049;-58
2022/06/01 06:18:24;;;;;;;3.33;0.50;;;11.80;54.90;;;;;;4989376;28;20099;-56
2022/06/01 06:20:52;;;;;;;1.27;0.45;;;11.70;54.50;;;;;;5008736;28;20029;-56
2022/06/01 06:23:19;;;;;;;2.38;0.60;;;11.70;54.60;;;;;;5007549;28;20033;-55
2022/06/01 06:25:46;;;;;;;3.30;0.60;;;11.70;54.70;;;;;;5018875;28;20037;-55
2022/06/01 06:28:14;;;;;;;12.02;1.77;;;11.70;54.30;;;;;;5008402;28;20498;-54
2022/06/01 06:30:42;;;;;;;5.22;1.70;;;11.70;54.30;;;;;;5007268;28;20041;-58
2022/06/01 06:33:10;;;;;;;7.80;0.90;;;11.70;53.90;;;;;;5010661;28;20104;-56
2022/06/01 06:35:37;;;;;;;13.00;5.57;;;11.70;54.10;;;;;;5007301;28;20034;-55
2022/06/01 06:38:05;;;;;;;8.38;2.22;;;11.60;55.30;;;;;;5006297;28;20022;-54
2022/06/01 06:40:33;;;;;;;9.60;4.43;;;11.50;56.00;;;;;;5006886;28;20036;-55
2022/06/01 06:43:00;;;;;;;5.68;1.58;;;11.30;55.90;;;;;;5009290;28;20029;-58
2022/06/01 06:45:27;;;;;;;5.38;2.60;;;11.20;56.30;;;;;;4989949;28;20034;-57
2022/06/01 06:47:55;;;;;;;8.40;3.47;;;11.10;56.00;;;;;;5015134;28;20108;-54
2022/06/01 06:50:23;;;;;;;2.20;0.80;;;11.10;56.90;;;;;;4998873;28;20029;-55
2022/06/01 06:52:50;;;;;;;14.02;7.63;;;10.90;57.20;;;;;;5010164;28;20026;-53
2022/06/01 06:55:18;;;;;;;8.35;4.50;;;10.80;57.00;;;;;;5016889;28;20435;-55
2022/06/01 06:57:45;;;;;;;12.93;6.78;;;10.70;57.60;;;;;;5008300;28;20026;-57
2022/06/01 07:00:13;;;;;;;6.57;2.55;;;10.60;58.30;;;;;;5018508;28;20026;-59
2022/06/01 07:02:41;;;;;;;19.30;11.15;;;10.50;58.50;;;;;;5014152;28;20505;-52
2022/06/01 07:05:09;;;;;;;17.23;12.40;;;10.30;59.40;;;;;;5013728;28;20038;-54
2022/06/01 07:07:36;;;;;;;6.90;4.57;;;10.20;59.40;;;;;;5008117;28;20026;-55
2022/06/01 07:10:04;;;;;;;2.83;2.28;;;10.00;59.80;;;;;;5009056;28;20041;-54
2022/06/01 07:12:31;;;;;;;2.40;1.48;;;9.90;60.30;;;;;;5009889;28;20379;-56
2022/06/01 07:14:58;;;;;;;1.35;0.98;;;9.70;61.20;;;;;;5020155;28;20041;-55
2022/06/01 07:17:26;;;;;;;2.35;1.05;;;9.50;62.20;;;;;;5010517;28;20116;-56
2022/06/01 07:19:56;;;;;;;3.20;1.40;;;9.40;62.70;;;;;;5007378;28;20026;-56
2022/06/01 07:22:23;;;;;;;4.28;1.70;;;9.30;62.80;;;;;;5008827;28;20025;-55
2022/06/01 07:24:50;;;;;;;10.90;7.97;;;9.20;63.60;;;;;;5004676;28;20045;-55
2022/06/01 07:27:18;;;;;;;3.50;2.08;;;9.20;63.50;;;;;;5017350;28;20026;-56
2022/06/01 07:29:45;;;;;;;3.22;2.10;;;9.10;64.10;;;;;;5008249;28;20037;-56
2022/06/01 07:32:12;;;;;;;10.18;5.55;;;9.00;64.60;;;;;;5006384;28;20478;-55
2022/06/01 07:34:39;;;;;;;10.50;6.32;;;8.90;65.60;;;;;;5011172;28;20034;-57
2022/06/01 07:45:23;;;;;;;7.15;5.05;;;8.90;65.90;;;;;;4990590;28;20104;-56
2022/06/01 07:47:50;;;;;;;2.92;1.35;;;8.80;65.70;;;;;;5008529;28;20046;-55
2022/06/01 07:50:17;;;;;;;5.80;2.80;;;8.80;66.90;;;;;;5006501;28;20044;-55
2022/06/01 07:52:45;;;;;;;5.22;1.48;;;8.70;66.70;;;;;;5021405;28;20044;-56
2022/06/01 07:55:12;;;;;;;2.65;1.70;;;8.70;66.50;;;;;;5024141;28;20033;-56
2022/06/01 07:57:39;;;;;;;6.70;2.70;;;8.60;66.80;;;;;;5019139;28;20028;-56
2022/06/01 08:00:07;;;;;;;2.55;1.20;;;8.50;67.10;;;;;;5016330;28;20026;-58
2022/06/01 08:02:34;;;;;;;3.33;0.90;;;8.50;68.20;;;;;;5009680;28;20022;-56
2022/06/01 08:05:02;;;;;;;7.32;0.88;;;8.40;68.70;;;;;;5010214;28;20033;-57
2022/06/01 08:07:29;;;;;;;6.03;3.90;;;8.30;68.90;;;;;;5007662;28;20022;-56
2022/06/01 08:09:56;;;;;;;6.57;3.40;;;8.10;69.00;;;;;;5008665;28;20525;-57
2022/06/01 08:15:09;;;;;;;6.20;3.60;;;7.90;69.90;;;;;;5007041;28;20053;-58
2022/06/01 08:17:36;;;;;;;19.92;9.90;;;7.80;69.60;;;;;;5003067;28;20133;-57
2022/06/01 08:20:04;;;;;;;9.57;5.07;;;7.70;69.80;;;;;;5009010;28;20037;-57
2022/06/01 08:22:32;;;;;;;3.30;1.60;;;7.60;70.30;;;;;;5006802;28;20025;-59
2022/06/01 08:24:59;;;;;;;3.85;1.70;;;7.60;71.20;;;;;;4987872;28;20507;-55
2022/06/01 08:27:26;;;;;;;8.07;3.28;;;7.60;71.20;;;;;;5003293;28;20041;-54
2022/06/01 08:29:53;;;;;;;5.30;2.70;;;7.60;71.70;;;;;;5007782;28;20060;-55
2022/06/01 08:32:30;;;;;;;5.05;2.70;;;7.50;71.80;;;;;;4989433;28;20041;-57
2022/06/01 08:34:57;;;;;;;5.03;2.50;;;7.50;72.30;;;;;;5007390;28;20065;-58
2022/06/01 08:37:24;;;;;;;2.95;1.40;;;7.40;72.20;;;;;;5006279;28;20030;-56
2022/06/01 08:39:51;;;;;;;1.83;1.00;;;7.40;72.70;;;;;;5006971;28;20505;-57
2022/06/01 08:42:23;;;;;;;2.05;0.77;;;7.40;72.60;;;;;;5007810;28;20025;-58
2022/06/01 08:44:52;;;;;;;1.80;0.70;;;7.60;72.60;;;;;;5008095;28;20050;-56
2022/06/01 08:47:39;;;;;;;2.17;0.82;;;7.60;72.20;;;;;;5007275;28;20122;-60
2022/06/01 08:50:19;;;;;;;1.17;0.60;;;7.70;72.90;;;;;;5006042;28;20103;-57
2022/06/01 08:52:46;;;;;;;0.77;0.50;;;7.90;71.80;;;;;;5006786;28;20022;-57
2022/06/01 08:55:16;;;;;;;1.25;0.70;;;7.90;71.60;;;;;;5008187;28;20026;-59
2022/06/01 08:58:05;;;;;;;0.68;0.55;;;8.00;72.10;;;;;;5007264;28;20022;-58
2022/06/01 09:00:41;;;;;;;0.70;0.57;;;8.10;71.60;;;;;;5005008;28;20056;-58
2022/06/01 09:03:14;;;;;;;0.55;0.40;;;8.20;70.60;;;;;;5008484;28;20553;-59
2022/06/01 09:05:57;;;;;;;0.50;0.50;;;8.30;69.90;;;;;;5006971;28;20029;-59
2022/06/01 09:08:35;;;;;;;2.25;0.50;;;8.50;69.50;;;;;;5009751;28;20041;-57
2022/06/01 09:11:13;;;;;;;1.45;0.60;;;8.60;68.20;;;;;;5010591;28;20726;-57
2022/06/01 09:13:57;;;;;;;2.05;0.60;;;8.50;68.40;;;;;;5009104;28;20030;-58
2022/06/01 09:16:40;;;;;;;1.10;0.55;;;8.20;69.70;;;;;;5007971;28;20026;-57
2022/06/01 09:19:17;;;;;;;2.10;0.90;;;8.00;69.70;;;;;;5008096;28;20029;-57
2022/06/01 09:24:40;;;;;;;;;;;7.50;71.70;;;;;;5008090;28;20060;-58
2022/06/01 09:27:11;;;;;;;3.50;1.50;;;7.30;73.40;;;;;;5007923;28;19913;-54
2022/06/01 09:29:52;;;;;;;4.40;1.65;;;7.20;73.80;;;;;;4988441;28;20070;-56
2022/06/01 09:32:29;;;;;;;6.40;1.77;;;7.00;74.20;;;;;;5007916;28;20076;-58
2022/06/01 09:35:05;;;;;;;4.05;1.55;;;6.80;74.90;;;;;;5007419;28;20037;-55
2022/06/01 09:37:40;;;;;;;2.72;1.50;;;6.60;76.30;;;;;;5004060;28;20026;-56
2022/06/01 09:40:25;;;;;;;5.20;1.70;;;6.50;76.80;;;;;;5008151;28;20104;-54
2022/06/01 09:42:54;;;;;;;3.95;1.60;;;6.30;76.80;;;;;;5007403;28;20394;-56
2022/06/01 09:45:25;;;;;;;5.22;3.25;;;6.30;78.00;;;;;;5007515;28;20045;-54
2022/06/01 09:47:54;;;;;;;9.27;3.88;;;6.20;78.90;;;;;;5009281;28;20049;-58
2022/06/01 09:50:30;;;;;;;7.10;3.38;;;6.20;79.50;;;;;;5007667;28;20029;-54
2022/06/01 09:53:23;;;;;;;6.28;2.97;;;6.20;79.90;;;;;;5007267;28;20558;-58
2022/06/01 09:56:00;;;;;;;6.80;2.20;;;6.20;80.70;;;;;;5005774;28;20034;-56
2022/06/01 10:07:20;;;;;;;5.05;3.03;;;6.10;79.80;;;;;;5008442;28;20088;-59
2022/06/01 10:10:00;;;;;;;6.80;3.15;;;6.00;80.90;;;;;;4989497;28;20037;-56
2022/06/01 10:12:43;;;;;;;5.15;3.05;;;5.90;82.30;;;;;;5007268;28;20104;-56
2022/06/01 10:15:24;;;;;;;5.05;2.53;;;5.90;82.40;;;;;;5004087;28;20026;-57
2022/06/01 10:18:00;;;;;;;6.68;2.50;;;5.80;82.70;;;;;;5007141;28;20040;-58
2022/06/01 10:20:55;;;;;;;3.58;2.13;;;5.70;83.20;;;;;;5006725;28;20052;-57
2022/06/01 10:23:51;;;;;;;6.28;2.65;;;5.70;83.20;;;;;;5006921;28;20060;-55
2022/06/01 10:26:27;;;;;;;3.17;2.13;;;5.60;84.30;;;;;;4986127;28;20038;-57
2022/06/01 10:29:01;;;;;;;4.90;2.65;;;5.60;84.10;;;;;;4999493;28;20025;-57
2022/06/01 10:31:50;;;;;;;5.35;2.83;;;5.50;84.60;;;;;;4986308;28;20468;-57
2022/06/01 10:34:29;;;;;;;6.30;3.00;;;5.60;85.50;;;;;;4981165;28;20038;-57
2022/06/01 10:37:12;;;;;;;9.70;3.35;;;5.60;85.70;;;;;;5006430;28;20065;-56
2022/06/01 10:39:46;;;;;;;4.25;2.30;;;5.60;86.20;;;;;;5007964;28;20037;-56
2022/06/01 10:42:23;;;;;;;4.13;2.30;;;5.70;86.50;;;;;;5006328;28;20036;-55
2022/06/01 10:45:03;;;;;;;2.80;1.77;;;5.80;85.00;;;;;;5007302;28;20345;-58
2022/06/01 10:47:56;;;;;;;2.72;1.52;;;5.90;84.40;;;;;;5006951;28;20555;-54
2022/06/01 10:50:37;;;;;;;2.92;1.30;;;6.20;83.60;;;;;;5006048;28;20043;-52
2022/06/01 10:53:36;;;;;;;1.30;1.00;;;6.50;81.60;;;;;;5015057;28;20026;-51
2022/06/01 10:56:04;;;;;;;3.22;1.30;;;6.70;80.40;;;;;;5006404;28;20025;-53
2022/06/01 10:58:31;;;;;;;2.90;1.40;;;6.80;79.40;;;;;;5006971;28;20061;-55
2022/06/01 11:01:12;;;;;;;2.78;0.95;;;6.90;79.20;;;;;;5006718;28;20406;-57
2022/06/01 11:03:45;;;;;;;2.55;0.98;;;7.00;78.60;;;;;;4991868;28;20466;-56
2022/06/01 11:06:33;;;;;;;2.55;0.82;;;7.00;78.50;;;;;;5004473;28;20022;-56
2022/06/01 11:09:35;;;;;;;3.50;1.60;;;7.20;78.50;;;;;;4996535;28;20317;-56
2022/06/01 11:12:26;;;;;;;9.25;2.95;;;7.40;76.90;;;;;;4979348;28;20129;-54
2022/06/01 11:15:09;;;;;;;11.43;3.75;;;7.50;76.90;;;;;;5004995;28;20033;-55
2022/06/01 11:17:50;;;;;;;7.05;1.67;;;7.50;77.30;;;;;;5004606;28;20056;-57
2022/06/01 11:20:35;;;;;;;1.80;0.80;;;7.60;77.20;;;;;;5003497;28;20109;-58
2022/06/01 11:23:05;;;;;;;4.60;0.85;;;7.70;76.10;;;;;;5002861;28;20033;-55
2022/06/01 11:25:38;;;;;;;1.70;0.60;;;7.90;75.40;;;;;;5006070;28;20041;-55
2022/06/01 11:28:37;;;;;;;2.28;0.50;;;8.00;74.70;;;;;;5009868;28;20462;-55
2022/06/01 11:31:21;;;;;;;0.68;0.60;;;8.00;75.10;;;;;;5010443;28;20038;-57
2022/06/01 11:34:19;;;;;;;0.65;0.50;;;8.00;75.40;;;;;;4979762;28;20499;-53
2022/06/01 11:36:50;;;;;;;6.07;0.90;;;8.00;75.40;;;;;;5005741;28;20030;-54
2022/06/01 11:39:20;;;;;;;4.50;0.95;;;8.20;74.30;;;;;;5016070;28;20084;-54
2022/06/01 11:41:58;;;;;;;1.40;0.77;;;8.40;73.90;;;;;;5009613;28;20033;-53
2022/06/01 11:44:33;;;;;;;2.55;0.68;;;8.60;73.00;;;;;;5008162;28;20081;-56
2022/06/01 11:47:04;;;;;;;1.13;0.50;;;8.70;72.50;;;;;;5015416;28;20053;-55
2022/06/01 11:49:43;;;;;;;3.53;0.63;;;8.90;72.00;;;;;;5021141;28;20174;-57
2022/06/01 11:52:41;;;;;;;1.13;0.43;;;9.00;71.40;;;;;;5011492;28;20034;-63
2022/06/01 11:55:39;;;;;;;1.00;0.40;;;9.00;71.50;;;;;;5002492;28;20029;-56
2022/06/01 11:58:31;;;;;;;1.75;0.40;;;9.00;71.60;;;;;;5008236;28;20068;-55
2022/06/01 12:01:12;;;;;;;0.68;0.40;;;9.00;71.60;;;;;;5009668;28;20076;-54
2022/06/01 12:03:48;;;;;;;2.40;0.63;;;9.00;71.80;;;;;;5005667;28;20026;-56
2022/06/01 12:06:40;;;;;;;2.88;0.43;;;9.00;71.60;;;;;;4989739;28;20548;-59
2022/06/01 12:09:32;;;;;;;3.60;0.60;;;9.00;72.00;;;;;;5011628;28;20052;-58
2022/06/01 12:12:00;;;;;;;3.42;0.65;;;8.90;72.40;;;;;;5011397;28;20018;-58
2022/06/01 12:14:39;;;;;;;6.72;0.68;;;8.60;73.00;;;;;;5009500;28;20026;-56
2022/06/01 12:17:18;;;;;;;8.75;1.38;;;8.40;73.30;;;;;;5009214;28;20486;-57
2022/06/01 12:19:52;;;;;;;5.82;1.60;;;8.20;74.20;;;;;;5014580;28;20398;-57
2022/06/01 12:28:48;;;;;;;6.78;0.70;;;7.70;77.50;;;;;;5016265;28;20056;-58
2022/06/01 12:31:27;;;;;;;1.20;0.60;;;7.50;78.10;;;;;;5015826;28;20022;-57
2022/06/01 12:34:41;;;;;;;3.92;1.60;;;7.40;78.90;;;;;;5011526;28;20018;-58
2022/06/01 12:37:18;;;;;;;4.22;0.68;;;7.30;79.90;;;;;;4908470;29;20040;-59
2022/06/01 12:39:56;;;;;;;0.47;0.47;;;7.30;79.80;;;;;;4914119;29;20036;-57
2022/06/01 12:42:41;;;;;;;2.33;0.68;;;7.20;79.50;;;;;;4981896;28;20482;-57
2022/06/01 12:45:15;;;;;;;1.27;0.63;;;7.20;80.20;;;;;;5012119;28;20040;-57
2022/06/01 12:48:05;;;;;;;0.95;0.50;;;7.30;80.20;;;;;;5009059;28;20099;-57
2022/06/01 12:50:45;;;;;;;2.25;0.50;;;7.30;79.60;;;;;;5009713;28;20026;-58
2022/06/01 12:53:17;;;;;;;2.88;0.60;;;7.30;79.60;;;;;;5010386;28;20034;-57
2022/06/01 12:55:46;;;;;;;1.48;0.50;;;7.30;80.70;;;;;;5010708;28;20040;-56
2022/06/01 12:58:17;;;;;;;1.33;0.50;;;7.20;80.60;;;;;;5008890;28;20576;-56
2022/06/01 13:00:54;;;;;;;6.65;1.00;;;7.20;81.00;;;;;;5008798;28;20145;-59
2022/06/01 13:03:24;;;;;;;2.20;0.40;;;7.30;80.50;;;;;;5005490;28;20034;-58
2022/06/01 13:05:56;;;;;;;0.60;0.60;;;7.20;81.00;;;;;;5012326;28;20038;-58
2022/06/01 13:08:32;;;;;;;0.52;0.45;;;7.20;81.30;;;;;;5018279;28;20044;-56
2022/06/01 13:11:32;;;;;;;3.10;1.00;;;7.10;81.80;;;;;;5014089;28;20017;-58
2022/06/01 13:14:02;;;;;;;2.15;0.60;;;7.10;82.30;;;;;;4989601;28;20041;-58
2022/06/01 13:16:43;;;;;;;5.22;0.57;;;7.10;81.20;;;;;;5011488;28;20061;-58
2022/06/01 13:19:27;;;;;;;2.33;0.60;;;6.90;81.70;;;;;;5015856;28;20083;-59
2022/06/01 13:22:09;;;;;;;7.65;2.08;;;6.80;82.20;;;;;;5010217;28;20106;-58
2022/06/01 13:24:47;;;;;;;5.45;1.90;;;6.60;83.10;;;;;;5007759;28;20116;-56
2022/06/01 13:27:14;;;;;;;5.88;1.40;;;6.50;83.50;;;;;;5008309;28;20022;-56
2022/06/01 13:29:48;;;;;;;3.53;1.25;;;6.50;85.40;;;;;;5009460;28;20029;-58
2022/06/01 13:32:18;;;;;;;2.92;1.45;;;6.60;84.80;;;;;;5009224;28;20423;-58
2022/06/01 13:34:52;;;;;;;10.27;5.38;;;6.80;84.30;;;;;;5009120;28;20026;-58
2022/06/01 13:37:23;;;;;;;5.00;2.03;;;6.80;84.50;;;;;;5009279;28;20022;-51
2022/06/01 13:40:19;;;;;;;4.57;2.08;;;6.70;84.60;;;;;;5008266;28;20041;-53
2022/06/01 13:42:59;;;;;;;2.72;1.17;;;6.50;84.90;;;;;;5009660;28;20550;-56
2022/06/01 13:45:54;;;;;;;2.83;1.30;;;6.50;85.20;;;;;;5018554;28;20040;-56
2022/06/01 13:48:55;;;;;;;2.35;0.70;;;6.40;86.40;;;;;;4997729;28;20077;-57
2022/06/01 13:51:22;;;;;;;3.67;0.77;;;6.50;87.00;;;;;;5006044;28;20459;-57
2022/06/01 13:53:50;;;;;;;2.60;1.08;;;6.60;86.80;;;;;;5015342;28;20029;-57
2022/06/01 13:56:22;;;;;;;5.63;0.80;;;6.70;87.20;;;;;;5008887;28;20513;-57
2022/06/01 13:58:58;;;;;;;2.28;0.70;;;6.90;85.70;;;;;;5017567;28;20387;-58
2022/06/01 14:01:43;;;;;;;4.43;0.88;;;7.10;84.80;;;;;;5009503;28;20025;-58